createdAt,value
2019-01-20T00:01:31.354Z,95.26
2019-01-20T00:04:00.446Z,95.18
2019-01-20T00:06:29.566Z,95.46
2019-01-20T00:08:58.645Z,95.38
2019-01-20T00:11:27.760Z,95.85
2019-01-20T00:13:56.839Z,95.58
2019-01-20T00:16:25.948Z,95.10
2019-01-20T00:18:55.032Z,94.86
2019-01-20T00:21:24.141Z,94.55
2019-01-20T00:23:53.229Z,94.68
2019-01-20T00:26:22.332Z,94.65
2019-01-20T00:28:51.417Z,94.50
2019-01-20T00:31:20.521Z,93.89
2019-01-20T00:33:49.610Z,94.08
2019-01-20T00:36:18.741Z,93.99
2019-01-20T00:38:47.825Z,94.31
2019-01-20T00:41:23.827Z,94.51
2019-01-20T00:43:47.732Z,94.03
2019-01-20T00:46:16.840Z,94.19
2019-01-20T00:48:45.968Z,94.71
2019-01-20T00:51:15.077Z,94.60
2019-01-20T00:53:44.166Z,94.99
2019-01-20T00:56:13.279Z,95.64
2019-01-20T00:58:42.356Z,95.38
2019-01-20T01:01:11.464Z,94.86
2019-01-20T01:03:40.556Z,94.70
2019-01-20T01:06:09.660Z,94.72
2019-01-20T01:08:38.745Z,95.09
2019-01-20T01:11:07.848Z,95.21
2019-01-20T01:13:37.420Z,94.88
2019-01-20T01:16:06.535Z,94.63
2019-01-20T01:18:35.623Z,94.85
2019-01-20T01:21:04.711Z,94.80
2019-01-20T01:23:33.819Z,94.63
2019-01-20T01:26:02.904Z,94.32
2019-01-20T01:28:32.007Z,94.22
2019-01-20T01:31:01.118Z,94.54
2019-01-20T01:33:30.237Z,94.51
2019-01-20T01:35:59.311Z,94.54
2019-01-20T01:38:28.424Z,94.45
2019-01-20T01:40:57.509Z,94.11
2019-01-20T01:43:26.626Z,94.26
2019-01-20T01:45:55.707Z,94.42
2019-01-20T01:48:24.835Z,94.46
2019-01-20T01:50:53.919Z,94.41
2019-01-20T01:53:23.026Z,94.61
2019-01-20T01:55:52.113Z,94.40
2019-01-20T01:58:21.219Z,94.79
2019-01-20T02:00:50.304Z,95.40
2019-01-20T02:03:19.402Z,95.76
2019-01-20T02:05:48.499Z,95.73
2019-01-20T02:08:17.602Z,95.41
2019-01-20T02:10:46.687Z,95.05
2019-01-20T02:13:15.797Z,94.61
2019-01-20T02:15:44.867Z,94.13
2019-01-20T02:18:13.967Z,93.60
2019-01-20T02:20:43.052Z,93.59
2019-01-20T02:23:12.167Z,93.51
2019-01-20T02:25:41.251Z,93.35
2019-01-20T02:28:10.348Z,93.16
2019-01-20T02:30:39.437Z,93.33
2019-01-20T02:33:08.539Z,93.47
2019-01-20T02:35:37.633Z,93.46
2019-01-20T02:38:06.771Z,93.20
2019-01-20T02:40:35.878Z,93.13
2019-01-20T02:43:04.982Z,92.48
2019-01-20T02:45:34.067Z,92.24
2019-01-20T02:48:03.201Z,92.28
2019-01-20T02:50:32.277Z,92.38
2019-01-20T02:53:01.367Z,92.28
2019-01-20T02:55:30.467Z,92.34
2019-01-20T02:57:59.542Z,92.35
2019-01-20T03:00:28.652Z,92.46
2019-01-20T03:02:57.746Z,92.11
2019-01-20T03:05:26.865Z,92.10
2019-01-20T03:07:55.939Z,92.01
2019-01-20T03:10:25.047Z,91.98
2019-01-20T03:12:54.123Z,91.96
2019-01-20T03:15:23.229Z,92.55
2019-01-20T03:17:52.302Z,92.75
2019-01-20T03:20:22.727Z,92.69
2019-01-20T03:22:51.779Z,92.63
2019-01-20T03:25:20.987Z,92.64
2019-01-20T03:27:50.069Z,93.04
2019-01-20T03:30:20.742Z,92.76
2019-01-20T03:32:49.817Z,93.00
2019-01-20T03:35:21.683Z,93.09
2019-01-20T03:37:50.767Z,93.10
2019-01-20T03:40:20.089Z,92.43
2019-01-20T03:42:49.876Z,92.57
2019-01-20T03:45:19.396Z,92.78
2019-01-20T03:47:49.522Z,92.97
2019-01-20T03:50:18.752Z,92.90
2019-01-20T03:52:47.841Z,93.33
2019-01-20T03:55:17.638Z,93.31
2019-01-20T03:57:46.934Z,93.07
2019-01-20T04:00:21.459Z,93.12
2019-01-20T04:02:53.649Z,93.12
2019-01-20T04:05:22.771Z,92.91
2019-01-20T04:07:53.098Z,92.91
2019-01-20T04:10:22.226Z,93.15
2019-01-20T04:12:51.328Z,94.15
2019-01-20T04:15:20.413Z,94.43
2019-01-20T04:17:49.527Z,94.99
2019-01-20T04:20:18.711Z,95.17
2019-01-20T04:22:47.822Z,95.12
2019-01-20T04:25:17.907Z,94.64
2019-01-20T04:27:47.009Z,93.37
2019-01-20T04:30:20.311Z,92.11
2019-01-20T04:32:49.601Z,91.51
2019-01-20T04:35:18.831Z,91.47
2019-01-20T04:37:47.919Z,91.60
2019-01-20T04:40:22.992Z,91.83
2019-01-20T04:42:52.082Z,91.54
2019-01-20T04:45:21.222Z,91.91
2019-01-20T04:47:50.356Z,92.16
2019-01-20T04:50:21.659Z,92.18
2019-01-20T04:52:50.786Z,91.97
2019-01-20T04:55:19.852Z,91.80
2019-01-20T04:57:55.570Z,91.54
2019-01-20T05:00:26.336Z,91.57
2019-01-20T05:02:55.442Z,91.65
2019-01-20T05:05:24.715Z,92.33
2019-01-20T05:07:53.846Z,92.05
2019-01-20T05:10:22.944Z,91.73
2019-01-20T05:12:52.050Z,91.99
2019-01-20T05:15:23.021Z,91.93
2019-01-20T05:17:52.119Z,91.97
2019-01-20T05:20:21.217Z,92.30
2019-01-20T05:22:50.313Z,91.78
2019-01-20T05:25:19.400Z,92.13
2019-01-20T05:27:48.506Z,91.99
2019-01-20T05:30:22.747Z,92.19
2019-01-20T05:32:51.847Z,91.91
2019-01-20T05:35:20.958Z,91.67
2019-01-20T05:37:50.063Z,91.42
2019-01-20T05:40:19.284Z,91.35
2019-01-20T05:42:48.522Z,91.31
2019-01-20T05:45:22.619Z,91.45
2019-01-20T05:47:51.751Z,91.45
2019-01-20T05:50:20.840Z,91.52
2019-01-20T05:52:49.954Z,91.59
2019-01-20T05:55:19.148Z,91.52
2019-01-20T05:57:48.238Z,91.93
2019-01-20T06:00:22.660Z,91.91
2019-01-20T06:02:51.741Z,91.83
2019-01-20T06:05:20.856Z,91.80
2019-01-20T06:07:49.932Z,91.73
2019-01-20T06:10:19.035Z,91.71
2019-01-20T06:12:54.004Z,91.79
2019-01-20T06:15:19.861Z,91.55
2019-01-20T06:17:48.945Z,91.47
2019-01-20T06:20:18.203Z,91.21
2019-01-20T06:22:47.362Z,91.09
2019-01-20T06:25:16.768Z,91.90
2019-01-20T06:27:45.854Z,91.66
2019-01-20T06:30:26.521Z,91.67
2019-01-20T06:32:55.594Z,92.21
2019-01-20T06:35:24.696Z,92.75
2019-01-20T06:37:53.779Z,92.45
2019-01-20T06:40:22.894Z,92.14
2019-01-20T06:42:51.977Z,91.83
2019-01-20T06:45:21.201Z,92.09
2019-01-20T06:47:50.296Z,91.79
2019-01-20T06:50:19.838Z,91.89
2019-01-20T06:52:48.938Z,91.87
2019-01-20T06:55:18.050Z,91.55
2019-01-20T06:57:47.132Z,91.45
2019-01-20T07:00:17.975Z,91.42
2019-01-20T07:02:47.084Z,92.68
2019-01-20T07:05:16.694Z,92.81
2019-01-20T07:07:45.779Z,93.75
2019-01-20T07:10:15.923Z,93.73
2019-01-20T07:12:45.032Z,94.11
2019-01-20T07:15:21.931Z,94.23
2019-01-20T07:17:51.016Z,94.96
2019-01-20T07:20:20.222Z,94.90
2019-01-20T07:22:49.299Z,94.87
2019-01-20T07:25:18.412Z,94.72
2019-01-20T07:27:47.487Z,94.69
2019-01-20T07:30:18.890Z,94.41
2019-01-20T07:32:47.967Z,94.39
2019-01-20T07:35:17.428Z,94.39
2019-01-20T07:37:46.648Z,94.31
2019-01-20T07:40:17.297Z,93.87
2019-01-20T07:42:46.375Z,93.50
2019-01-20T07:45:16.288Z,93.39
2019-01-20T07:47:45.413Z,93.12
2019-01-20T07:50:19.896Z,92.82
2019-01-20T07:52:49.016Z,92.77
2019-01-20T07:55:18.127Z,92.29
2019-01-20T07:57:47.253Z,92.19
2019-01-20T08:00:17.973Z,92.17
2019-01-20T08:02:47.169Z,91.89
2019-01-20T08:05:16.280Z,91.46
2019-01-20T08:07:45.395Z,91.32
2019-01-20T08:10:17.161Z,91.01
2019-01-20T08:12:46.248Z,90.40
2019-01-20T08:15:15.921Z,89.95
2019-01-20T08:17:45.025Z,89.04
2019-01-20T08:20:15.953Z,88.51
2019-01-20T08:22:45.033Z,88.31
2019-01-20T08:25:15.157Z,87.53
2019-01-20T08:27:44.267Z,88.19
2019-01-20T08:30:18.233Z,88.79
2019-01-20T08:32:47.321Z,88.90
2019-01-20T08:35:16.712Z,88.86
2019-01-20T08:37:45.832Z,88.44
2019-01-20T08:40:17.357Z,88.49
2019-01-20T08:42:46.460Z,87.82
2019-01-20T08:46:02.483Z,86.44
2019-01-20T08:48:32.530Z,85.79
2019-01-20T08:51:01.594Z,84.76
2019-01-20T08:53:30.683Z,84.33
2019-01-20T08:55:59.800Z,83.67
2019-01-20T08:58:28.885Z,83.01
2019-01-20T09:00:58.000Z,81.43
2019-01-20T09:03:27.082Z,81.14
2019-01-20T09:05:56.194Z,80.07
2019-01-20T09:08:25.297Z,79.33
2019-01-20T09:10:54.441Z,79.06
2019-01-20T09:13:23.597Z,79.51
2019-01-20T09:15:52.680Z,80.03
2019-01-20T09:18:21.788Z,80.34
2019-01-20T09:20:50.878Z,79.15
2019-01-20T09:23:19.985Z,80.03
2019-01-20T09:25:49.061Z,80.93
2019-01-20T09:28:18.165Z,82.61
2019-01-20T09:30:47.249Z,83.59
2019-01-20T09:33:24.355Z,82.71
2019-01-20T09:35:47.736Z,82.93
2019-01-20T09:38:16.880Z,82.11
2019-01-20T09:40:45.964Z,80.83
2019-01-20T09:43:15.078Z,82.31
2019-01-20T09:45:45.045Z,82.21
2019-01-20T09:48:14.184Z,82.57
2019-01-20T09:50:43.270Z,82.20
2019-01-20T09:53:12.386Z,81.02
2019-01-20T09:55:41.485Z,81.03
2019-01-20T09:58:10.601Z,80.37
2019-01-20T10:00:39.685Z,80.07
2019-01-20T10:03:16.029Z,79.24
2019-01-20T10:05:39.645Z,79.90
2019-01-20T10:08:11.088Z,78.37
2019-01-20T10:10:40.217Z,76.90
2019-01-20T10:13:09.323Z,75.35
2019-01-20T10:15:38.410Z,74.90
2019-01-20T10:18:07.639Z,74.35
2019-01-20T10:20:36.732Z,73.19
2019-01-20T10:23:05.844Z,71.21
2019-01-20T10:25:34.951Z,69.46
2019-01-20T10:28:05.757Z,60.82
2019-01-20T10:30:37.070Z,52.75
2019-01-20T10:33:06.335Z,48.33
2019-01-20T10:35:38.200Z,38.92
2019-01-20T10:38:08.958Z,37.96
2019-01-20T10:40:38.054Z,35.54
2019-01-20T10:43:07.276Z,35.88
2019-01-20T10:45:36.442Z,34.75
2019-01-20T10:48:06.135Z,31.10
2019-01-20T10:50:35.252Z,30.83
2019-01-20T10:53:04.817Z,30.51
2019-01-20T10:55:34.083Z,29.58
2019-01-20T10:58:03.176Z,29.00
2019-01-20T11:00:34.097Z,26.46
2019-01-20T11:03:03.212Z,27.04
2019-01-20T11:05:32.842Z,29.46
2019-01-20T11:08:01.936Z,26.06
2019-01-20T11:10:31.050Z,30.15
2019-01-20T11:13:00.141Z,28.08
2019-01-20T11:15:29.256Z,28.36
2019-01-20T11:17:58.358Z,28.98
2019-01-20T11:20:27.473Z,26.51
2019-01-20T11:22:56.565Z,26.30
2019-01-20T11:25:30.953Z,24.93
2019-01-20T11:28:00.054Z,25.09
2019-01-20T11:30:29.177Z,28.02
2019-01-20T11:32:58.278Z,26.44
2019-01-20T11:35:27.401Z,25.19
2019-01-20T11:37:56.762Z,25.93
2019-01-20T11:40:25.893Z,26.67
2019-01-20T11:42:54.992Z,23.15
2019-01-20T11:45:26.147Z,24.73
2019-01-20T11:47:55.283Z,24.73
2019-01-20T11:50:24.401Z,22.41
2019-01-20T11:52:53.662Z,23.88
2019-01-20T11:55:23.216Z,24.27
2019-01-20T11:57:52.405Z,23.26
2019-01-20T12:00:29.650Z,22.60
2019-01-20T12:02:58.752Z,23.58
2019-01-20T12:05:28.031Z,23.41
2019-01-20T12:07:57.141Z,24.74
2019-01-20T12:10:26.235Z,24.50
2019-01-20T12:13:03.093Z,24.38
2019-01-20T12:15:32.187Z,24.32
2019-01-20T12:18:01.504Z,24.83
2019-01-20T12:20:30.591Z,24.44
2019-01-20T12:22:59.698Z,23.63
2019-01-20T12:25:28.805Z,24.08
2019-01-20T12:27:57.920Z,22.92
2019-01-20T12:30:28.630Z,23.58
2019-01-20T12:32:57.740Z,23.41
2019-01-20T12:35:26.850Z,23.54
2019-01-20T12:37:55.962Z,23.32
2019-01-20T12:40:27.538Z,25.48
2019-01-20T12:42:56.653Z,23.01
2019-01-20T12:45:25.754Z,23.27
2019-01-20T12:47:54.886Z,24.95
2019-01-20T12:50:23.984Z,23.36
2019-01-20T12:52:53.094Z,25.28
2019-01-20T12:55:22.286Z,25.25
2019-01-20T12:57:51.396Z,25.65
2019-01-20T13:00:20.508Z,25.95
2019-01-20T13:02:49.739Z,24.51
2019-01-20T13:05:18.833Z,26.44
2019-01-20T13:07:48.146Z,26.28
2019-01-20T13:10:18.094Z,26.28
2019-01-20T13:12:47.411Z,27.90
2019-01-20T13:15:18.245Z,28.60
2019-01-20T13:17:47.377Z,26.33
2019-01-20T13:20:18.755Z,26.11
2019-01-20T13:22:47.894Z,27.65
2019-01-20T13:25:19.233Z,28.58
2019-01-20T13:27:48.356Z,28.87
2019-01-20T13:30:19.512Z,28.21
2019-01-20T13:32:48.743Z,31.41
2019-01-20T13:35:18.833Z,30.56
2019-01-20T13:37:50.310Z,30.33
2019-01-20T13:40:29.308Z,29.36
2019-01-20T13:42:58.471Z,29.68
2019-01-20T13:45:27.522Z,29.53
2019-01-20T13:47:56.678Z,28.77
2019-01-20T13:50:25.777Z,29.73
2019-01-20T13:52:54.905Z,31.02
2019-01-20T13:55:24.016Z,28.89
2019-01-20T13:57:53.134Z,28.39
2019-01-20T14:00:22.844Z,27.93
2019-01-20T14:02:51.976Z,28.88
2019-01-20T14:05:21.096Z,28.21
2019-01-20T14:07:50.236Z,28.78
2019-01-20T14:10:19.672Z,28.83
2019-01-20T14:12:48.893Z,29.45
2019-01-20T14:15:18.230Z,31.43
2019-01-20T14:17:47.430Z,32.02
2019-01-20T14:20:18.567Z,32.12
2019-01-20T14:22:47.926Z,32.07
2019-01-20T14:25:19.353Z,31.43
2019-01-20T14:27:48.456Z,31.72
2019-01-20T14:30:22.579Z,31.23
2019-01-20T14:32:51.693Z,33.70
2019-01-20T14:35:20.783Z,34.57
2019-01-20T14:37:49.873Z,35.57
2019-01-20T14:40:19.060Z,34.74
2019-01-20T14:42:48.289Z,34.09
2019-01-20T14:45:17.688Z,32.35
2019-01-20T14:47:46.805Z,35.03
2019-01-20T14:50:18.736Z,35.74
2019-01-20T14:52:47.916Z,35.20
2019-01-20T14:55:17.504Z,35.23
2019-01-20T14:57:46.583Z,38.10
2019-01-20T15:00:18.867Z,39.71
2019-01-20T15:02:47.958Z,37.89
2019-01-20T15:05:17.068Z,39.65
2019-01-20T15:07:46.152Z,40.37
2019-01-20T15:10:15.518Z,43.45
2019-01-20T15:12:44.606Z,43.30
2019-01-20T15:15:16.490Z,43.59
2019-01-20T15:17:45.572Z,45.31
2019-01-20T15:20:15.061Z,49.19
2019-01-20T15:22:44.145Z,51.18
2019-01-20T15:25:14.191Z,52.80
2019-01-20T15:27:43.279Z,55.22
2019-01-20T15:30:18.427Z,56.41
2019-01-20T15:32:47.765Z,58.44
2019-01-20T15:35:16.872Z,61.20
2019-01-20T15:37:45.980Z,64.28
2019-01-20T15:40:16.192Z,66.23
2019-01-20T15:42:45.285Z,67.65
2019-01-20T15:45:16.517Z,68.73
2019-01-20T15:47:45.941Z,69.51
2019-01-20T15:50:20.391Z,71.24
2019-01-20T15:52:49.508Z,72.02
2019-01-20T15:55:18.682Z,73.11
2019-01-20T15:57:47.764Z,73.48
2019-01-20T16:00:19.176Z,74.43
2019-01-20T16:02:48.371Z,74.95
2019-01-20T16:05:17.996Z,75.71
2019-01-20T16:07:47.099Z,76.37
2019-01-20T16:10:16.657Z,77.03
2019-01-20T16:12:46.169Z,77.54
2019-01-20T16:15:24.781Z,77.95
2019-01-20T16:17:53.404Z,78.71
2019-01-20T16:20:22.542Z,79.47
2019-01-20T16:22:51.770Z,79.78
2019-01-20T16:25:23.026Z,80.49
2019-01-20T16:27:52.143Z,81.54
2019-01-20T16:30:23.737Z,81.70
2019-01-20T16:32:52.949Z,81.10
2019-01-20T16:35:22.059Z,81.81
2019-01-20T16:37:51.183Z,81.95
2019-01-20T16:40:21.318Z,82.09
2019-01-20T16:42:50.494Z,82.37
2019-01-20T16:45:21.996Z,82.74
2019-01-20T16:47:51.154Z,82.69
2019-01-20T16:50:21.809Z,83.38
2019-01-20T16:52:54.695Z,83.13
2019-01-20T16:55:21.774Z,82.99
2019-01-20T16:57:50.954Z,82.92
2019-01-20T17:00:25.312Z,82.57
2019-01-20T17:02:54.542Z,82.97
2019-01-20T17:05:26.871Z,82.95
2019-01-20T17:07:54.607Z,83.36
2019-01-20T17:10:26.036Z,83.90
2019-01-20T17:12:55.222Z,83.75
2019-01-20T17:15:39.506Z,83.91
2019-01-20T17:18:07.685Z,84.11
2019-01-20T17:20:36.883Z,84.32
2019-01-20T17:23:06.272Z,84.42
2019-01-20T17:25:40.814Z,84.55
2019-01-20T17:28:11.200Z,84.05
2019-01-20T17:30:40.893Z,84.40
2019-01-20T17:33:10.817Z,84.73
2019-01-20T17:35:39.914Z,85.04
2019-01-20T17:38:09.031Z,85.27
2019-01-20T17:40:38.149Z,85.14
2019-01-20T17:43:07.498Z,85.91
2019-01-20T17:45:39.149Z,85.63
2019-01-20T17:48:08.434Z,85.86
2019-01-20T17:50:39.090Z,85.91
2019-01-20T17:53:09.245Z,86.27
2019-01-20T17:55:38.336Z,86.51
2019-01-20T17:58:07.449Z,86.22
2019-01-20T18:00:45.516Z,86.73
2019-01-20T18:03:14.681Z,86.75
2019-01-20T18:05:43.773Z,87.22
2019-01-20T18:08:12.909Z,86.77
2019-01-20T18:10:41.985Z,87.05
2019-01-20T18:13:11.099Z,86.72
2019-01-20T18:15:40.183Z,87.92
2019-01-20T18:18:09.337Z,86.97
2019-01-20T18:20:38.441Z,87.24
2019-01-20T18:23:07.556Z,87.66
2019-01-20T18:25:36.675Z,87.47
2019-01-20T18:28:06.200Z,88.03
2019-01-20T18:30:35.294Z,88.17
2019-01-20T18:33:04.381Z,88.13
2019-01-20T18:35:33.486Z,88.33
2019-01-20T18:38:02.577Z,88.17
2019-01-20T18:40:31.687Z,88.32
2019-01-20T18:43:00.795Z,88.58
2019-01-20T18:45:31.535Z,88.69
2019-01-20T18:48:00.654Z,89.05
2019-01-20T18:50:31.765Z,88.88
2019-01-20T18:53:00.857Z,88.94
2019-01-20T18:55:30.004Z,88.59
2019-01-20T18:57:59.072Z,88.90
2019-01-20T19:00:30.621Z,88.73
2019-01-20T19:02:59.741Z,88.22
2019-01-20T19:05:30.505Z,88.06
2019-01-20T19:07:59.745Z,88.64
2019-01-20T19:10:28.970Z,88.74
2019-01-20T19:12:58.211Z,88.14
2019-01-20T19:15:27.352Z,88.46
2019-01-20T19:17:56.444Z,88.50
2019-01-20T19:20:25.581Z,88.89
2019-01-20T19:22:55.813Z,89.85
2019-01-20T19:25:24.988Z,89.27
2019-01-20T19:27:54.065Z,89.21
2019-01-20T19:30:28.181Z,89.50
2019-01-20T19:32:57.275Z,89.34
2019-01-20T19:35:28.395Z,89.55
2019-01-20T19:37:57.573Z,89.26
2019-01-20T19:40:26.741Z,88.86
2019-01-20T19:42:55.847Z,89.15
2019-01-20T19:45:24.960Z,89.05
2019-01-20T19:47:54.094Z,89.27
2019-01-20T19:50:23.239Z,89.04
2019-01-20T19:52:52.349Z,89.33
2019-01-20T19:55:24.229Z,89.70
2019-01-20T19:58:01.977Z,89.64
2019-01-20T20:00:31.716Z,90.00
2019-01-20T20:03:00.831Z,90.11
2019-01-20T20:05:30.706Z,90.39
2019-01-20T20:07:59.812Z,90.32
2019-01-20T20:10:29.266Z,90.41
2019-01-20T20:12:58.796Z,90.51
2019-01-20T20:15:28.389Z,90.49
2019-01-20T20:17:57.499Z,90.88
2019-01-20T20:20:26.815Z,90.60
2019-01-20T20:22:56.004Z,90.66
2019-01-20T20:25:26.075Z,90.86
2019-01-20T20:27:55.507Z,91.36
2019-01-20T20:30:35.420Z,91.36
2019-01-20T20:33:04.634Z,91.33
2019-01-20T20:35:33.853Z,91.00
2019-01-20T20:38:02.940Z,91.18
2019-01-20T20:40:32.033Z,90.95
2019-01-20T20:43:01.157Z,90.33
2019-01-20T20:45:30.383Z,90.92
2019-01-20T20:48:00.558Z,91.15
2019-01-20T20:50:29.661Z,90.91
2019-01-20T20:52:58.799Z,91.25
2019-01-20T20:55:27.897Z,91.45
2019-01-20T20:57:57.014Z,91.06
2019-01-20T21:00:28.642Z,90.85
2019-01-20T21:02:57.828Z,91.24
2019-01-20T21:05:26.923Z,91.00
2019-01-20T21:07:56.030Z,90.86
2019-01-20T21:10:25.400Z,91.20
2019-01-20T21:12:54.519Z,91.17
2019-01-20T21:15:23.613Z,90.78
2019-01-20T21:17:52.737Z,90.65
2019-01-20T21:20:22.298Z,90.33
2019-01-20T21:22:51.410Z,90.44
2019-01-20T21:25:20.500Z,90.23
2019-01-20T21:27:49.605Z,90.49
2019-01-20T21:30:20.702Z,90.06
2019-01-20T21:32:49.818Z,90.33
2019-01-20T21:35:19.411Z,90.79
2019-01-20T21:37:48.721Z,90.73
2019-01-20T21:40:18.444Z,91.14
2019-01-20T21:42:47.764Z,91.44
2019-01-20T21:45:17.396Z,91.55
2019-01-20T21:47:46.619Z,91.47
2019-01-20T21:50:26.691Z,90.87
2019-01-20T21:52:55.822Z,90.74
2019-01-20T21:55:24.929Z,90.79
2019-01-20T21:57:54.036Z,91.00
2019-01-20T22:00:24.757Z,91.22
2019-01-20T22:02:53.876Z,90.98
2019-01-20T22:05:22.964Z,91.15
2019-01-20T22:07:52.072Z,90.83
2019-01-20T22:10:22.098Z,90.76
2019-01-20T22:12:51.204Z,90.61
2019-01-20T22:15:20.301Z,91.45
2019-01-20T22:17:49.969Z,91.88
2019-01-20T22:20:20.746Z,91.45
2019-01-20T22:22:49.964Z,91.83
2019-01-20T22:25:19.071Z,91.81
2019-01-20T22:27:48.181Z,91.53
2019-01-20T22:30:27.572Z,91.83
2019-01-20T22:32:56.696Z,91.25
2019-01-20T22:35:25.801Z,91.10
2019-01-20T22:37:54.886Z,90.38
2019-01-20T22:40:23.988Z,91.52
2019-01-20T22:42:53.067Z,90.70
2019-01-20T22:45:24.238Z,90.71
2019-01-20T22:47:53.340Z,91.17
2019-01-20T22:50:22.517Z,91.77
2019-01-20T22:52:51.628Z,91.94
2019-01-20T22:55:20.746Z,92.51
2019-01-20T22:57:49.836Z,92.52
2019-01-20T23:00:46.982Z,92.41
2019-01-20T23:03:16.185Z,92.49
2019-01-20T23:05:45.298Z,92.98
2019-01-20T23:08:14.430Z,92.78
2019-01-20T23:10:43.494Z,92.52
2019-01-20T23:13:12.680Z,92.27
2019-01-20T23:15:41.773Z,92.39
2019-01-20T23:18:11.156Z,92.32
2019-01-20T23:20:40.264Z,91.90
2019-01-20T23:23:09.347Z,91.52
2019-01-20T23:25:38.453Z,91.33
2019-01-20T23:28:07.545Z,91.24
2019-01-20T23:30:36.648Z,90.92
2019-01-20T23:33:05.744Z,91.41
2019-01-20T23:35:34.843Z,91.26
2019-01-20T23:38:04.029Z,91.55
2019-01-20T23:40:33.167Z,91.36
2019-01-20T23:43:02.245Z,91.86
2019-01-20T23:45:31.366Z,91.16
2019-01-20T23:48:00.473Z,91.13
2019-01-20T23:50:29.575Z,91.20
2019-01-20T23:52:58.658Z,91.73
2019-01-20T23:55:27.773Z,91.54
2019-01-20T23:57:56.865Z,92.05
